createdAt,value
2023-03-02T00:01:11.349Z,91586.78
2023-03-02T00:03:41.045Z,91599.97
2023-03-02T00:06:09.282Z,91583.94
2023-03-02T00:08:37.368Z,91592.84
2023-03-02T00:11:04.500Z,91583.50
2023-03-02T00:13:32.592Z,91596.22
2023-03-02T00:15:59.300Z,91599.38
2023-03-02T00:18:26.066Z,91604.81
2023-03-02T00:20:52.769Z,91589.66
2023-03-02T00:23:19.453Z,91602.50
2023-03-02T00:25:46.286Z,91595.97
2023-03-02T00:28:12.970Z,91589.22
2023-03-02T00:30:40.188Z,91590.88
2023-03-02T00:33:07.184Z,91593.66
2023-03-02T00:35:38.887Z,91591.25
2023-03-02T00:38:07.419Z,91587.28
2023-03-02T00:40:35.562Z,91573.31
2023-03-02T00:43:02.250Z,91574.09
2023-03-02T00:45:28.961Z,91578.34
2023-03-02T00:47:55.799Z,91579.47
2023-03-02T00:50:22.788Z,91575.19
2023-03-02T00:52:49.445Z,91573.66
2023-03-02T00:55:16.134Z,91564.75
2023-03-02T00:57:44.422Z,91564.03
2023-03-02T01:00:11.736Z,91566.00
2023-03-02T01:02:44.065Z,91572.91
2023-03-02T01:05:11.160Z,91568.06
2023-03-02T01:07:39.868Z,91569.63
2023-03-02T01:10:07.808Z,91567.94
2023-03-02T01:12:34.583Z,91567.81
2023-03-02T01:15:01.371Z,91565.69
2023-03-02T01:17:28.451Z,91566.19
2023-03-02T01:19:55.138Z,91562.03
2023-03-02T01:22:22.812Z,91559.53
2023-03-02T01:24:50.184Z,91563.91
2023-03-02T01:27:16.873Z,91557.94
2023-03-02T01:29:43.643Z,91557.53
2023-03-02T01:32:10.445Z,91538.44
2023-03-02T01:34:38.823Z,91543.34
2023-03-02T01:37:05.584Z,91547.25
2023-03-02T01:39:32.332Z,91547.06
2023-03-02T01:41:58.990Z,91547.38
2023-03-02T01:44:38.407Z,91547.81
2023-03-02T01:47:38.799Z,91547.25
2023-03-02T01:50:05.464Z,91540.53
2023-03-02T01:52:34.968Z,91550.72
2023-03-02T01:55:06.424Z,91553.41
2023-03-02T01:57:43.613Z,91551.19
2023-03-02T02:00:16.026Z,91557.16
2023-03-02T02:02:42.904Z,91553.91
2023-03-02T02:05:19.704Z,91558.41
2023-03-02T02:07:46.801Z,91548.16
2023-03-02T02:10:14.658Z,91543.06
2023-03-02T02:12:41.352Z,91552.97
2023-03-02T02:15:08.525Z,91552.06
2023-03-02T02:17:35.596Z,91551.84
2023-03-02T02:20:07.602Z,91548.16
2023-03-02T02:22:44.392Z,91556.44
2023-03-02T02:25:34.050Z,91558.06
2023-03-02T02:28:03.452Z,91549.44
2023-03-02T02:30:30.224Z,91552.69
2023-03-02T02:32:58.385Z,91549.47
2023-03-02T02:35:30.377Z,91547.19
2023-03-02T02:38:03.675Z,91547.88
2023-03-02T02:40:54.954Z,91537.31
2023-03-02T02:43:23.121Z,91553.50
2023-03-02T02:45:53.997Z,91558.22
2023-03-02T02:48:24.422Z,91561.75
2023-03-02T02:51:00.126Z,91566.97
2023-03-02T02:53:40.689Z,91560.31
2023-03-02T02:56:09.519Z,91559.38
2023-03-02T02:58:44.884Z,91551.47
2023-03-02T03:01:16.650Z,91541.25
2023-03-02T03:03:49.786Z,91540.91
2023-03-02T03:06:21.058Z,91534.78
2023-03-02T03:08:53.100Z,91532.81
2023-03-02T03:11:31.875Z,91528.47
2023-03-02T03:14:01.184Z,91528.25
2023-03-02T03:16:30.144Z,91534.91
2023-03-02T03:19:01.644Z,91542.19
2023-03-02T03:21:28.416Z,91550.47
2023-03-02T03:23:55.071Z,91554.28
2023-03-02T03:26:21.774Z,91549.41
2023-03-02T03:28:48.488Z,91543.19
2023-03-02T03:31:15.207Z,91536.06
2023-03-02T03:33:41.989Z,91538.91
2023-03-02T03:36:09.216Z,91538.50
2023-03-02T03:38:36.098Z,91533.53
2023-03-02T03:41:02.771Z,91533.72
2023-03-02T03:43:29.409Z,91532.66
2023-03-02T03:45:56.168Z,91533.31
2023-03-02T03:48:24.977Z,91531.53
2023-03-02T03:50:51.769Z,91535.00
2023-03-02T03:53:18.398Z,91531.53
2023-03-02T03:55:45.139Z,91535.22
2023-03-02T03:58:11.810Z,91542.03
2023-03-02T04:00:38.605Z,91540.72
2023-03-02T04:03:05.309Z,91535.06
2023-03-02T04:05:32.387Z,91540.19
2023-03-02T04:08:02.220Z,91539.41
2023-03-02T04:10:29.892Z,91527.31
2023-03-02T04:12:57.976Z,91527.59
2023-03-02T04:15:24.967Z,91524.78
2023-03-02T04:17:52.441Z,91515.66
2023-03-02T04:20:21.563Z,91523.81
2023-03-02T04:22:50.949Z,91522.38
2023-03-02T04:25:19.890Z,91518.81
2023-03-02T04:27:47.668Z,91523.25
2023-03-02T04:30:15.187Z,91520.34
2023-03-02T04:32:43.955Z,91519.88
2023-03-02T04:35:11.972Z,91526.88
2023-03-02T04:37:39.915Z,91522.13
2023-03-02T04:40:08.039Z,91522.59
2023-03-02T04:42:35.076Z,91521.59
2023-03-02T04:45:02.115Z,91521.16
2023-03-02T04:47:28.819Z,91517.06
2023-03-02T04:49:56.774Z,91519.22
2023-03-02T04:52:25.249Z,91525.50
2023-03-02T04:54:52.818Z,91520.28
2023-03-02T04:57:19.498Z,91523.31
2023-03-02T04:59:46.120Z,91525.88
2023-03-02T05:02:12.971Z,91522.66
2023-03-02T05:04:41.157Z,91528.75
2023-03-02T05:07:08.494Z,91519.88
2023-03-02T05:09:35.271Z,91520.19
2023-03-02T05:12:02.447Z,91526.56
2023-03-02T05:14:30.006Z,91524.78
2023-03-02T05:16:57.579Z,91525.84
2023-03-02T05:19:24.618Z,91533.69
2023-03-02T05:21:51.882Z,91538.44
2023-03-02T05:24:19.010Z,91529.50
2023-03-02T05:26:45.817Z,91525.56
2023-03-02T05:29:12.452Z,91533.13
2023-03-02T05:31:42.951Z,91534.28
2023-03-02T05:34:12.172Z,91532.59
2023-03-02T05:36:39.211Z,91535.03
2023-03-02T05:39:07.531Z,91530.00
2023-03-02T05:41:34.767Z,91518.63
2023-03-02T05:44:02.093Z,91529.13
2023-03-02T05:46:29.154Z,91527.19
2023-03-02T05:48:55.828Z,91540.22
2023-03-02T05:51:22.855Z,91537.19
2023-03-02T05:53:49.555Z,91539.38
2023-03-02T05:56:16.598Z,91543.50
2023-03-02T05:58:43.263Z,91536.44
2023-03-02T06:01:14.848Z,91542.19
2023-03-02T06:03:42.879Z,91543.06
2023-03-02T06:06:14.040Z,91537.19
2023-03-02T06:08:41.492Z,91533.00
2023-03-02T06:11:09.199Z,91545.13
2023-03-02T06:13:36.442Z,91544.13
2023-03-02T06:16:03.417Z,91553.25
2023-03-02T06:18:30.206Z,91539.16
2023-03-02T06:20:57.094Z,91546.31
2023-03-02T06:23:23.828Z,91545.22
2023-03-02T06:25:50.750Z,91547.28
2023-03-02T06:28:20.090Z,91549.38
2023-03-02T06:30:52.279Z,91554.13
2023-03-02T06:33:21.367Z,91553.91
2023-03-02T06:35:48.897Z,91550.84
2023-03-02T06:38:15.695Z,91550.06
2023-03-02T06:40:42.553Z,91541.25
2023-03-02T06:43:09.314Z,91545.31
2023-03-02T06:45:36.104Z,91554.91
2023-03-02T06:48:02.960Z,91552.25
2023-03-02T06:50:29.949Z,91551.44
2023-03-02T06:52:56.626Z,91551.75
2023-03-02T06:55:24.073Z,91548.81
2023-03-02T06:57:51.113Z,91551.69
2023-03-02T07:00:25.885Z,91549.50
2023-03-02T07:02:53.111Z,91550.84
2023-03-02T07:05:20.404Z,91546.78
2023-03-02T07:07:48.162Z,91553.66
2023-03-02T07:10:14.928Z,91555.44
2023-03-02T07:12:42.239Z,91554.72
2023-03-02T07:15:12.240Z,91550.09
2023-03-02T07:17:40.032Z,91555.56
2023-03-02T07:20:07.251Z,91562.19
2023-03-02T07:22:34.183Z,91558.72
2023-03-02T07:25:00.850Z,91561.28
2023-03-02T07:27:27.551Z,91561.59
2023-03-02T07:29:54.256Z,91558.63
2023-03-02T07:32:20.981Z,91563.91
2023-03-02T07:34:48.832Z,91564.19
2023-03-02T07:37:15.946Z,91565.06
2023-03-02T07:39:42.601Z,91562.78
2023-03-02T07:42:12.673Z,91547.88
2023-03-02T07:44:39.455Z,91561.94
2023-03-02T07:47:08.191Z,91556.13
2023-03-02T07:49:37.875Z,91561.38
2023-03-02T07:52:05.542Z,91558.22
2023-03-02T07:54:32.468Z,91551.09
2023-03-02T07:56:59.278Z,91559.16
2023-03-02T07:59:26.215Z,91563.50
2023-03-02T08:01:54.197Z,91567.06
2023-03-02T08:04:21.072Z,91555.53
2023-03-02T08:06:47.749Z,91556.91
2023-03-02T08:09:16.839Z,91556.03
2023-03-02T08:11:44.978Z,91555.13
2023-03-02T08:14:12.374Z,91555.28
2023-03-02T08:16:39.838Z,91553.31
2023-03-02T08:19:07.902Z,91556.06
2023-03-02T08:21:35.169Z,91558.34
2023-03-02T08:24:02.115Z,91557.94
2023-03-02T08:26:30.269Z,91553.53
2023-03-02T08:28:56.939Z,91552.28
2023-03-02T08:31:23.681Z,91556.63
2023-03-02T08:33:50.435Z,91555.09
2023-03-02T08:36:19.204Z,91548.16
2023-03-02T08:38:46.753Z,91547.91
2023-03-02T08:41:20.085Z,91548.47
2023-03-02T08:43:48.056Z,91549.84
2023-03-02T08:46:17.094Z,91550.94
2023-03-02T08:48:44.367Z,91543.78
2023-03-02T08:51:17.179Z,91541.00
2023-03-02T08:53:46.693Z,91552.25
2023-03-02T08:56:17.466Z,91554.81
2023-03-02T08:58:44.320Z,91548.09
2023-03-02T09:01:23.612Z,91547.38
2023-03-02T09:03:50.897Z,91549.44
2023-03-02T09:06:18.146Z,91550.78
2023-03-02T09:08:45.110Z,91553.59
2023-03-02T09:11:12.008Z,91545.06
2023-03-02T09:13:38.698Z,91548.28
2023-03-02T09:16:06.331Z,91547.69
2023-03-02T09:18:34.571Z,91542.78
2023-03-02T09:21:02.902Z,91537.19
2023-03-02T09:23:30.574Z,91536.00
2023-03-02T09:25:57.244Z,91537.56
2023-03-02T09:28:24.552Z,91546.41
2023-03-02T09:30:53.191Z,91538.91
2023-03-02T09:33:20.739Z,91541.09
2023-03-02T09:35:47.791Z,91539.81
2023-03-02T09:38:18.577Z,91540.69
2023-03-02T09:41:24.356Z,91545.44
2023-03-02T09:44:21.732Z,91543.94
2023-03-02T09:47:00.644Z,91546.44
2023-03-02T09:49:45.648Z,91545.44
2023-03-02T09:52:40.672Z,91546.19
2023-03-02T09:55:16.818Z,91541.28
2023-03-02T09:57:44.322Z,91541.06
2023-03-02T10:00:20.376Z,91540.00
2023-03-02T10:02:55.414Z,91531.78
2023-03-02T10:05:35.271Z,91531.00
2023-03-02T10:08:02.096Z,91536.28
2023-03-02T10:10:45.020Z,91535.47
2023-03-02T10:13:17.600Z,91492.19
2023-03-02T10:15:53.392Z,91531.13
2023-03-02T10:18:31.923Z,91527.66
2023-03-02T10:21:41.412Z,91518.63
2023-03-02T10:24:13.888Z,91530.00
2023-03-02T10:26:45.052Z,91524.56
2023-03-02T10:29:22.885Z,91522.06
2023-03-02T10:31:53.664Z,91516.81
2023-03-02T10:34:20.375Z,91508.22
2023-03-02T10:36:47.870Z,91509.09
2023-03-02T10:39:17.103Z,91514.13
2023-03-02T10:41:51.797Z,91516.97
2023-03-02T10:44:31.928Z,91513.53
2023-03-02T10:46:59.509Z,91507.47
2023-03-02T10:49:35.814Z,91505.53
2023-03-02T10:52:05.676Z,91493.22
2023-03-02T10:54:36.878Z,91494.91
2023-03-02T10:57:07.375Z,91490.63
2023-03-02T10:59:44.870Z,91494.50
2023-03-02T11:02:23.196Z,91485.53
2023-03-02T11:04:57.465Z,91497.09
2023-03-02T11:07:28.060Z,91494.94
2023-03-02T11:10:19.078Z,91490.94
2023-03-02T11:12:51.391Z,91489.94
2023-03-02T11:15:21.767Z,91492.53
2023-03-02T11:17:54.197Z,91490.13
2023-03-02T11:20:26.179Z,91483.13
2023-03-02T11:22:52.819Z,91482.84
2023-03-02T11:25:30.427Z,91479.41
2023-03-02T11:28:05.721Z,91464.06
2023-03-02T11:30:36.565Z,91479.72
2023-03-02T11:33:12.895Z,91478.34
2023-03-02T11:35:55.940Z,91478.06
2023-03-02T11:38:30.171Z,91477.91
2023-03-02T11:41:27.327Z,91477.81
2023-03-02T11:43:55.070Z,91473.69
2023-03-02T11:46:30.664Z,91469.63
2023-03-02T11:49:03.647Z,91472.25
2023-03-02T11:51:36.856Z,91465.28
2023-03-02T11:54:13.364Z,91468.16
2023-03-02T11:56:40.312Z,91469.72
2023-03-02T11:59:27.655Z,91475.19
2023-03-02T12:01:57.272Z,91466.31
2023-03-02T12:04:32.543Z,91472.16
2023-03-02T12:07:02.534Z,91466.75
2023-03-02T12:09:38.251Z,91474.25
2023-03-02T12:12:28.241Z,91468.72
2023-03-02T12:14:55.027Z,91469.34
2023-03-02T12:17:30.823Z,91475.13
2023-03-02T12:20:09.409Z,91468.66
2023-03-02T12:22:37.799Z,91468.22
2023-03-02T12:25:24.775Z,91465.88
2023-03-02T12:27:53.745Z,91457.63
2023-03-02T12:30:26.816Z,91458.38
2023-03-02T12:33:01.761Z,91449.88
2023-03-02T12:35:32.253Z,91452.91
2023-03-02T12:38:03.162Z,91449.38
2023-03-02T12:40:39.319Z,91446.25
2023-03-02T12:43:18.104Z,91444.31
2023-03-02T12:46:07.006Z,91444.16
2023-03-02T12:48:45.990Z,91436.72
2023-03-02T12:51:22.557Z,91437.25
2023-03-02T12:53:50.616Z,91435.31
2023-03-02T12:56:25.851Z,91435.63
2023-03-02T12:58:53.847Z,91442.63
2023-03-02T13:01:23.688Z,91438.50
2023-03-02T13:03:50.977Z,91438.03
2023-03-02T13:06:20.270Z,91437.25
2023-03-02T13:08:51.301Z,91445.44
2023-03-02T13:11:34.809Z,91444.00
2023-03-02T13:14:17.312Z,91443.31
2023-03-02T13:16:57.846Z,91436.50
2023-03-02T13:19:26.308Z,91439.56
2023-03-02T13:21:53.426Z,91430.72
2023-03-02T13:24:33.690Z,91428.19
2023-03-02T13:27:26.725Z,91428.00
2023-03-02T13:29:55.772Z,91430.09
2023-03-02T13:32:34.422Z,91419.16
2023-03-02T13:35:02.914Z,91426.34
2023-03-02T13:37:33.805Z,91426.59
2023-03-02T13:40:07.328Z,91423.91
2023-03-02T13:42:40.023Z,91408.00
2023-03-02T13:45:21.798Z,91419.34
2023-03-02T13:47:51.469Z,91416.72
2023-03-02T13:50:30.171Z,91413.53
2023-03-02T13:53:00.664Z,91414.97
2023-03-02T13:55:27.603Z,91409.84
2023-03-02T13:57:55.498Z,91413.94
2023-03-02T14:00:35.093Z,91408.06
2023-03-02T14:03:02.212Z,91408.47
2023-03-02T14:05:33.465Z,91405.72
2023-03-02T14:08:00.580Z,91404.69
2023-03-02T14:10:27.544Z,91404.78
2023-03-02T14:12:59.770Z,91400.84
2023-03-02T14:15:28.354Z,91403.34
2023-03-02T14:17:55.193Z,91395.13
2023-03-02T14:20:21.866Z,91406.84
2023-03-02T14:22:50.652Z,91403.31
2023-03-02T14:25:17.802Z,91399.66
2023-03-02T14:27:47.200Z,91399.38
2023-03-02T14:30:17.530Z,91386.81
2023-03-02T14:32:44.396Z,91390.63
2023-03-02T14:35:15.706Z,91387.97
2023-03-02T14:37:49.991Z,91391.81
2023-03-02T14:40:28.234Z,91395.31
2023-03-02T14:42:55.158Z,91394.97
2023-03-02T14:45:23.131Z,91392.34
2023-03-02T14:47:49.817Z,91390.66
2023-03-02T14:50:17.394Z,91398.22
2023-03-02T14:52:55.976Z,91402.34
2023-03-02T14:55:29.824Z,91399.31
2023-03-02T14:57:59.841Z,91402.34
2023-03-02T15:00:27.144Z,91394.34
2023-03-02T15:02:54.282Z,91401.94
2023-03-02T15:05:21.721Z,91404.34
2023-03-02T15:07:49.093Z,91404.38
2023-03-02T15:10:20.869Z,91406.72
2023-03-02T15:12:47.597Z,91401.63
2023-03-02T15:15:14.265Z,91394.41
2023-03-02T15:17:41.896Z,91406.13
2023-03-02T15:20:15.135Z,91404.41
2023-03-02T15:22:41.864Z,91403.31
2023-03-02T15:25:08.931Z,91405.69
2023-03-02T15:27:35.627Z,91400.81
2023-03-02T15:30:02.364Z,91401.13
2023-03-02T15:32:29.073Z,91401.59
2023-03-02T15:34:55.958Z,91402.25
2023-03-02T15:37:22.569Z,91398.34
2023-03-02T15:39:54.316Z,91397.66
2023-03-02T15:42:21.078Z,91402.44
2023-03-02T15:44:48.461Z,91405.13
2023-03-02T15:47:15.339Z,91409.81
2023-03-02T15:49:42.080Z,91398.56
2023-03-02T15:52:10.065Z,91401.81
2023-03-02T15:54:36.695Z,91400.59
2023-03-02T15:57:03.506Z,91406.13
2023-03-02T15:59:31.573Z,91412.41
2023-03-02T16:02:02.519Z,91409.63
2023-03-02T16:04:31.313Z,91405.84
2023-03-02T16:06:58.450Z,91411.16
2023-03-02T16:09:26.566Z,91413.47
2023-03-02T16:11:53.455Z,91416.56
2023-03-02T16:14:20.311Z,91417.59
2023-03-02T16:16:47.267Z,91418.34
2023-03-02T16:19:18.888Z,91427.63
2023-03-02T16:21:47.156Z,91429.56
2023-03-02T16:24:16.166Z,91433.09
2023-03-02T16:26:44.842Z,91435.91
2023-03-02T16:29:12.554Z,91433.50
2023-03-02T16:31:40.445Z,91443.44
2023-03-02T16:34:09.114Z,91443.75
2023-03-02T16:36:38.303Z,91438.44
2023-03-02T16:39:06.057Z,91445.84
2023-03-02T16:41:33.728Z,91445.75
2023-03-02T16:44:01.205Z,91449.34
2023-03-02T16:46:30.398Z,91453.78
2023-03-02T16:48:58.294Z,91452.75
2023-03-02T16:51:25.058Z,91445.16
2023-03-02T16:53:51.790Z,91446.91
2023-03-02T16:56:18.923Z,91454.47
2023-03-02T16:58:45.990Z,91458.41
2023-03-02T17:01:16.418Z,91464.09
2023-03-02T17:03:43.747Z,91457.50
2023-03-02T17:06:12.232Z,91451.72
2023-03-02T17:08:39.403Z,91455.41
2023-03-02T17:11:07.181Z,91455.25
2023-03-02T17:13:34.306Z,91466.56
2023-03-02T17:16:01.478Z,91455.25
2023-03-02T17:18:29.304Z,91466.34
2023-03-02T17:20:58.976Z,91459.84
2023-03-02T17:23:27.200Z,91459.97
2023-03-02T17:25:54.770Z,91466.75
2023-03-02T17:28:21.644Z,91466.25
2023-03-02T17:30:48.453Z,91463.53
2023-03-02T17:33:15.366Z,91455.56
2023-03-02T17:35:42.958Z,91450.38
2023-03-02T17:38:09.702Z,91458.03
2023-03-02T17:40:36.555Z,91463.41
2023-03-02T17:43:03.262Z,91463.78
2023-03-02T17:45:30.202Z,91462.25
2023-03-02T17:47:58.413Z,91468.34
2023-03-02T17:50:25.800Z,91451.88
2023-03-02T17:52:54.206Z,91455.44
2023-03-02T17:55:21.275Z,91456.94
2023-03-02T17:57:48.375Z,91463.72
2023-03-02T18:00:17.806Z,91457.66
2023-03-02T18:02:44.655Z,91455.16
2023-03-02T18:05:12.808Z,91468.59
2023-03-02T18:07:39.609Z,91464.25
2023-03-02T18:10:07.475Z,91465.53
2023-03-02T18:12:35.492Z,91440.91
2023-03-02T18:15:02.360Z,91433.34
2023-03-02T18:17:29.279Z,91469.44
2023-03-02T18:19:55.990Z,91457.31
2023-03-02T18:22:22.711Z,91463.41
2023-03-02T18:24:51.390Z,91465.28
2023-03-02T18:27:18.231Z,91462.94
2023-03-02T18:29:45.014Z,91438.81
2023-03-02T18:32:12.386Z,91468.31
2023-03-02T18:34:39.180Z,91473.19
2023-03-02T18:37:05.843Z,91464.41
2023-03-02T18:39:32.599Z,91473.91
2023-03-02T18:41:59.825Z,91464.66
2023-03-02T18:44:28.240Z,91459.09
2023-03-02T18:46:55.554Z,91466.41
2023-03-02T18:49:22.913Z,91469.81
2023-03-02T18:51:50.026Z,91464.19
2023-03-02T18:54:17.658Z,91470.84
2023-03-02T18:56:44.714Z,91463.88
2023-03-02T18:59:12.330Z,91463.00
2023-03-02T19:01:39.095Z,91471.44
2023-03-02T19:04:06.104Z,91462.59
2023-03-02T19:06:34.319Z,91468.19
2023-03-02T19:09:01.125Z,91464.38
2023-03-02T19:11:28.082Z,91469.56
2023-03-02T19:13:55.189Z,91471.03
2023-03-02T19:16:22.651Z,91466.59
2023-03-02T19:18:50.238Z,91463.66
2023-03-02T19:21:17.551Z,91413.28
2023-03-02T19:23:46.264Z,91468.06
2023-03-02T19:26:13.915Z,91469.38
2023-03-02T19:28:40.800Z,91470.84
2023-03-02T19:31:09.432Z,91476.78
2023-03-02T19:33:36.661Z,91464.44
2023-03-02T19:36:04.451Z,91470.34
2023-03-02T19:38:31.351Z,91474.03
2023-03-02T19:41:00.164Z,91474.03
2023-03-02T19:43:27.817Z,91474.72
2023-03-02T19:45:54.800Z,91462.03
2023-03-02T19:48:21.871Z,91449.19
2023-03-02T19:50:48.687Z,91472.22
2023-03-02T19:53:17.217Z,91474.38
2023-03-02T19:55:44.564Z,91475.91
2023-03-02T19:58:17.274Z,91476.50
2023-03-02T20:00:46.189Z,91470.91
2023-03-02T20:03:14.012Z,91470.72
2023-03-02T20:05:42.588Z,91472.09
2023-03-02T20:08:09.322Z,91474.75
2023-03-02T20:10:41.393Z,91468.13
2023-03-02T20:13:09.010Z,91467.69
2023-03-02T20:15:40.486Z,91438.94
2023-03-02T20:18:09.902Z,91466.66
2023-03-02T20:20:36.794Z,91465.94
2023-03-02T20:23:04.647Z,91465.69
2023-03-02T20:25:31.638Z,91462.19
2023-03-02T20:27:58.538Z,91449.16
2023-03-02T20:30:32.601Z,91458.81
2023-03-02T20:33:00.141Z,91458.28
2023-03-02T20:35:29.459Z,91448.75
2023-03-02T20:37:58.118Z,91446.09
2023-03-02T20:40:25.254Z,91437.34
2023-03-02T20:42:52.422Z,91427.47
2023-03-02T20:45:19.508Z,91431.25
2023-03-02T20:47:46.913Z,91430.69
2023-03-02T20:50:19.383Z,91427.03
2023-03-02T20:52:46.208Z,91429.81
2023-03-02T20:55:13.688Z,91424.19
2023-03-02T20:57:43.900Z,91417.78
2023-03-02T21:00:16.575Z,91420.63
2023-03-02T21:02:47.573Z,91425.44
2023-03-02T21:05:15.730Z,91426.16
2023-03-02T21:07:43.660Z,91421.91
2023-03-02T21:10:14.513Z,91421.34
2023-03-02T21:12:41.952Z,91417.91
2023-03-02T21:15:10.551Z,91419.63
2023-03-02T21:17:37.776Z,91410.66
2023-03-02T21:20:05.911Z,91416.66
2023-03-02T21:22:33.138Z,91414.81
2023-03-02T21:25:08.562Z,91408.75
2023-03-02T21:27:37.214Z,91409.00
2023-03-02T21:30:09.326Z,91400.41
2023-03-02T21:32:36.013Z,91396.78
2023-03-02T21:35:02.821Z,91392.88
2023-03-02T21:37:33.458Z,91391.06
2023-03-02T21:40:00.197Z,91388.50
2023-03-02T21:42:27.311Z,91382.81
2023-03-02T21:44:54.023Z,91383.63
2023-03-02T21:47:20.692Z,91395.09
2023-03-02T21:49:48.004Z,91384.09
2023-03-02T21:52:15.183Z,91381.94
2023-03-02T21:54:42.082Z,91379.78
2023-03-02T21:57:09.742Z,91375.31
2023-03-02T21:59:37.334Z,91375.16
2023-03-02T22:02:05.053Z,91375.75
2023-03-02T22:04:33.041Z,91374.91
2023-03-02T22:07:01.056Z,91369.88
2023-03-02T22:09:27.791Z,91354.81
2023-03-02T22:11:54.513Z,91353.88
2023-03-02T22:14:21.335Z,91363.84
2023-03-02T22:16:48.311Z,91360.81
2023-03-02T22:19:28.045Z,91355.75
2023-03-02T22:21:56.941Z,91364.31
2023-03-02T22:24:31.981Z,91372.66
2023-03-02T22:27:04.821Z,91369.16
2023-03-02T22:29:34.595Z,91372.81
2023-03-02T22:32:15.642Z,91379.03
2023-03-02T22:34:43.848Z,91380.91
2023-03-02T22:37:17.645Z,91378.75
2023-03-02T22:39:45.079Z,91369.97
2023-03-02T22:42:13.963Z,91368.81
2023-03-02T22:44:41.071Z,91359.13
2023-03-02T22:47:18.488Z,91356.53
2023-03-02T22:49:46.007Z,91350.06
2023-03-02T22:52:20.550Z,91337.22
2023-03-02T22:54:47.317Z,91342.50
2023-03-02T22:57:41.250Z,91348.81
2023-03-02T23:00:07.845Z,91348.78
2023-03-02T23:02:41.046Z,91336.91
2023-03-02T23:05:30.286Z,91338.84
2023-03-02T23:08:18.169Z,91336.75
2023-03-02T23:10:46.336Z,91329.31
2023-03-02T23:13:15.588Z,91331.22
2023-03-02T23:15:42.491Z,91335.03
2023-03-02T23:18:23.512Z,91335.78
2023-03-02T23:20:51.167Z,91330.03
2023-03-02T23:23:19.812Z,91337.16
2023-03-02T23:25:46.856Z,91322.00
2023-03-02T23:28:13.658Z,91320.31
2023-03-02T23:30:40.779Z,91319.66
2023-03-02T23:33:07.500Z,91319.53
2023-03-02T23:35:34.795Z,91314.69
2023-03-02T23:38:01.525Z,91309.25
2023-03-02T23:40:29.172Z,91310.00
2023-03-02T23:42:56.118Z,91300.38
2023-03-02T23:45:23.005Z,91284.19
2023-03-02T23:47:49.737Z,91281.69
2023-03-02T23:50:17.454Z,91282.38
2023-03-02T23:52:44.074Z,91278.78
2023-03-02T23:55:11.001Z,91272.47
2023-03-02T23:57:37.699Z,91266.84
